Nearby METAR Reports

 

KMTN - Baltimore/Martin, Maryland, USA
Distance from station: SSE 8mi, 13km
Updated: Wed, 02-Sep-2015 9:45pm EDT
Mostly cloudy
Mostly cloudy
 Wind from WNW
Wind: WNW 5 mph , 7 km/h
Temperature: 79°F , 26°C
Dew Point: 72°F , 22°C
Humidity: 79%
Barometer: 29.93 inHg , 1013.5 hPa
Clouds: Mostly cloudy
Visibility: 10 miles , 16 km
Cloud details: Mostly cloudy 12000 ft
2015/09/03 01:45 KMTN 030145Z 29004KT 10SM BKN120 26/22 A2993 RMK LAST
KDMH - Baltimore/Dwntwn, Maryland, USA
Distance from station: SW 12mi, 19km
Updated: Wed, 02-Sep-2015 9:54pm EDT

 
Temperature: 81°F , 27°C
Heat Index: 83°F , 28°C
Dew Point: 64°F , 18°C
Humidity: 58%
Barometer: 29.93 inHg , 1013.5 hPa
2015/09/03 01:54 KDMH 030154Z AUTO 27/18 A2993 RMK AO1 SLP134 T02720183
 
KBWI - Balto/Wash Intl, Maryland, USA
Distance from station: SSW 20mi, 33km
Updated: Wed, 02-Sep-2015 9:54pm EDT
Partly cloudy
Partly cloudy
 Wind from calm
Wind: Calm
Temperature: 75°F , 24°C
Dew Point: 66°F , 19°C
Humidity: 74%
Barometer: 29.93 inHg , 1013.5 hPa
Clouds: Partly cloudy
Visibility: 10 miles , 16 km
Cloud details: Few Clouds 16000 ft
Partly cloudy 25000 ft
2015/09/03 01:54 KBWI 030154Z 00000KT 10SM FEW160 SCT250 24/19 A2993 RMK AO2 SLP132 T02390189
KDMW - Carroll Cnty, Maryland, USA
Distance from station: WNW 30mi, 48km
Updated: Wed, 02-Sep-2015 10:00pm EDT
Clear
Clear
 Wind from calm
Wind: Calm
Temperature: 73°F , 23°C
Dew Point: 66°F , 19°C
Humidity: 78%
Barometer: 29.97 inHg , 1014.9 hPa
Clouds: Clear
Visibility: 10 miles , 16 km
2015/09/03 02:00 KDMW 030200Z AUTO 00000KT 10SM CLR 23/19 A2997 RMK AO2
 
KNAK - Annapolis/Naval, Maryland, USA
Distance from station: S 30mi, 48km
Updated: Wed, 02-Sep-2015 9:54pm EDT
Haze, Clear
Haze, Clear
 Wind from calm
Wind: Calm
Temperature: 79°F , 26°C
Dew Point: 73°F , 23°C
Humidity: 84%
Barometer: 29.92 inHg , 1013.2 hPa
Summary: Haze
Clouds: Clear
Visibility: 4 miles , 6 km
2015/09/03 01:54 KNAK 030154Z AUTO 00000KT 4SM HZ CLR 26/23 A2992 RMK AO2 SLP133 T02560228
KW29 - Stevensville, Maryland, USA
Distance from station: SSE 31mi, 50km
Updated: Wed, 02-Sep-2015 10:03pm EDT

 Wind from calm
Wind: Calm
Temperature: 77°F , 25°C
Dew Point: 70°F , 21°C
Humidity: 79%
Barometer: 29.92 inHg , 1013.2 hPa
Visibility: 10 miles , 16 km
2015/09/03 02:03 KW29 030203Z AUTO 00000KT 10SM 25/21 A2992 RMK AO1
 
KCGS - College Park, Maryland, USA
Distance from station: SW 38mi, 61km
Updated: Wed, 02-Sep-2015 10:00pm EDT
Clear
Clear
 Wind from calm
Wind: Calm
Temperature: 75°F , 24°C
Dew Point: 70°F , 21°C
Humidity: 83%
Barometer: 29.93 inHg , 1013.5 hPa
Clouds: Clear
Visibility: 10 miles , 16 km
2015/09/03 02:00 KCGS 030200Z AUTO 00000KT 10SM CLR 24/21 A2993 RMK AO1
KGAI - Gaithersburg, Maryland, USA
Distance from station: WSW 40mi, 65km
Updated: Wed, 02-Sep-2015 10:15pm EDT
Clear
Clear
 Wind from WNW
Wind: WNW 6 mph , 9 km/h
Temperature: 73°F , 23°C
Dew Point: 66°F , 19°C
Humidity: 78%
Barometer: 29.99 inHg , 1015.6 hPa
Clouds: Clear
Visibility: 10 miles , 16 km
2015/09/03 02:15 KGAI 030215Z AUTO 29005KT 10SM CLR 23/19 A2999 RMK AO1
 
KTHV - York, Pennsylvania, USA
Distance from station: NNW 40mi, 65km
Updated: Wed, 02-Sep-2015 9:53pm EDT
Clear
Clear
 Wind from ESE
Wind: ESE 3 mph , 6 km/h
Temperature: 70°F , 21°C
Dew Point: 66°F , 19°C
Humidity: 88%
Barometer: 29.95 inHg , 1014.2 hPa
Clouds: Clear
Visibility: 8 miles , 13 km
2015/09/03 01:53 KTHV 030153Z AUTO 11003KT 8SM CLR 21/19 A2995 RMK AO2 SLP140 T02110189
KFDK - Frederick, Maryland, USA
Distance from station: W 47mi, 75km
Updated: Wed, 02-Sep-2015 10:00pm EDT
Mist, Clear
Mist, Clear
 Wind from calm
Wind: Calm
Temperature: 70°F , 21°C
Dew Point: 70°F , 21°C
Humidity: 100%
Barometer: 29.97 inHg , 1014.9 hPa
Summary: Mist
Clouds: Clear
Visibility: 4 miles , 6 km
2015/09/03 02:00 KFDK 030200Z AUTO 00000KT 4SM BR CLR 21/21 A2997 RMK AO2
 
KESN - Easton/Newnam, Maryland, USA
Distance from station: SSE 48mi, 78km
Updated: Wed, 02-Sep-2015 8:55pm EDT
NOT Current
Mostly cloudy
Mostly cloudy
 Wind from WNW
Wind: WNW 5 mph , 7 km/h
Temperature: 81°F , 27°C
Heat Index: 86°F , 30°C
Dew Point: 73°F , 23°C
Humidity: 79%
Barometer: 29.97 inHg , 1014.9 hPa
Clouds: Mostly cloudy
Visibility: 10 miles , 16 km
Cloud details: Mostly cloudy 25000 ft
2015/09/03 00:55 KESN 030055Z 30004KT 10SM BKN250 27/23 A2997
KDCA - Washington/Natl, Washington D.c., USA
Distance from station: SW 49mi, 79km
Updated: Wed, 02-Sep-2015 9:52pm EDT
Few Clouds
Few Clouds
 Wind from S
Wind: S 6 mph , 9 km/h
Temperature: 79°F , 26°C
Dew Point: 70°F , 21°C
Humidity: 74%
Barometer: 29.94 inHg , 1013.9 hPa
Clouds: Few Clouds
Visibility: 10 miles , 16 km
Cloud details: Few Clouds 25000 ft
2015/09/03 01:52 KDCA 030152Z 19005KT 10SM FEW250 26/21 A2994 RMK AO2 SLP138 T02610211
 
KLNS - Lancaster, Pennsylvania, USA
Distance from station: N 49mi, 79km
Updated: Wed, 02-Sep-2015 9:53pm EDT
Clear
Clear
 Wind from W
Wind: W 5 mph , 7 km/h
Temperature: 75°F , 24°C
Dew Point: 66°F , 19°C
Humidity: 74%
Barometer: 29.93 inHg , 1013.5 hPa
Clouds: Clear
Visibility: 7 miles , 11 km
2015/09/03 01:53 KLNS 030153Z 28004KT 7SM CLR 24/19 A2993 RMK AO2 SLP132 T02440189
KILG - Wilmington, Delaware, USA
Distance from station: ENE 50mi, 81km
Updated: Wed, 02-Sep-2015 9:51pm EDT
Clear
Clear
 Wind from S
Wind: S 6 mph , 9 km/h
Temperature: 77°F , 25°C
Dew Point: 72°F , 22°C
Humidity: 83%
Barometer: 29.92 inHg , 1013.2 hPa
Clouds: Clear
Visibility: 7 miles , 11 km
2015/09/03 01:51 KILG 030151Z AUTO 18005KT 7SM CLR 25/22 A2992 RMK AO2 SLP130 T02500222 $